Time;durP1;ratioP1;P1;durP2;ratioP2;P2;SDS_P1;SDS_P2;PMS_P1;PMS_P2;Temp;Humidity;BMP_temperature;BMP_pressure;BME280_temperature;BME280_humidity;BME280_pressure;Samples;Min_cycle;Max_cycle;Signal;HPM_P1;HPM_P2
2022/12/01 00:01:39;;;;;;;;;;;1.70;99.90;;;;;;5089810;28;19908;-76
2022/12/01 00:04:05;;;;;;;;;;;1.70;99.90;;;;;;5089285;28;19912;-77
2022/12/01 00:06:30;;;;;;;;;;;1.70;99.90;;;;;;5088045;28;19909;-76
2022/12/01 00:11:40;;;;;;;;;;;1.70;99.90;;;;;;5089602;28;19954;-77
2022/12/01 00:14:06;;;;;;;;;;;1.70;99.90;;;;;;5089297;28;19947;-77
2022/12/01 00:16:32;;;;;;;;;;;1.70;99.90;;;;;;5088623;28;20269;-76
2022/12/01 00:18:57;;;;;;;;;;;1.70;99.90;;;;;;5088456;28;20773;-77
2022/12/01 00:21:24;;;;;;;;;;;1.80;99.90;;;;;;5089987;28;20041;-77
2022/12/01 00:23:51;;;;;;;;;;;1.70;99.90;;;;;;5088391;28;19912;-77
2022/12/01 00:26:17;;;;;;;;;;;1.80;99.90;;;;;;5089654;28;19943;-77
2022/12/01 00:28:42;;;;;;;;;;;1.80;99.90;;;;;;5088906;28;20431;-76
2022/12/01 00:31:09;;;;;;;;;;;1.80;99.90;;;;;;5089839;28;19948;-77
2022/12/01 00:33:34;;;;;;;;;;;1.80;99.90;;;;;;5088032;28;20463;-77
2022/12/01 00:36:00;;;;;;;;;;;1.80;99.90;;;;;;5077479;28;19942;-77
2022/12/01 00:38:26;;;;;;;;;;;1.70;99.90;;;;;;5089767;28;20003;-76
2022/12/01 00:40:51;;;;;;;;;;;1.70;99.90;;;;;;5088174;28;19918;-77
2022/12/01 00:43:17;;;;;;;;;;;1.70;99.90;;;;;;5085298;28;19912;-75
2022/12/01 00:45:46;;;;;;;;;;;1.60;99.90;;;;;;5087752;28;19917;-75
2022/12/01 00:48:11;;;;;;;;;;;1.50;99.90;;;;;;5087920;28;19912;-76
2022/12/01 00:50:37;;;;;;;;;;;1.50;99.90;;;;;;5087794;28;20371;-75
2022/12/01 00:53:02;;;;;;;;;;;1.50;99.90;;;;;;5087157;28;19920;-76
2022/12/01 00:55:28;;;;;;;;;;;1.50;99.90;;;;;;5088107;28;20090;-77
2022/12/01 00:57:53;;;;;;;;;;;1.40;99.90;;;;;;5090619;28;19924;-77
2022/12/01 01:00:19;;;;;;;;;;;1.40;99.90;;;;;;5089834;28;19912;-77
2022/12/01 01:02:45;;;;;;;;;;;1.40;99.90;;;;;;5090162;28;19915;-77
2022/12/01 01:05:10;;;;;;;;;;;1.40;99.90;;;;;;5088490;28;20285;-77
2022/12/01 01:07:35;;;;;;;;;;;1.40;99.90;;;;;;5088395;28;19908;-75
2022/12/01 01:10:01;;;;;;;;;;;1.30;99.90;;;;;;5088344;28;19912;-76
2022/12/01 01:12:27;;;;;;;;;;;1.30;99.90;;;;;;5089345;28;19909;-76
2022/12/01 01:14:52;;;;;;;;;;;1.30;99.90;;;;;;5090183;28;19927;-76
2022/12/01 01:17:18;;;;;;;;;;;1.30;99.90;;;;;;5089121;28;20005;-77
2022/12/01 01:19:44;;;;;;;;;;;1.20;99.90;;;;;;5089864;28;19916;-76
2022/12/01 01:22:10;;;;;;;;;;;1.20;99.90;;;;;;5089390;28;19931;-75
2022/12/01 01:24:35;;;;;;;;;;;1.20;99.90;;;;;;5091123;28;19918;-76
2022/12/01 01:27:01;;;;;;;;;;;1.20;99.90;;;;;;5090493;28;19908;-76
2022/12/01 01:29:26;;;;;;;;;;;1.10;99.90;;;;;;5089049;28;19912;-76
2022/12/01 01:31:52;;;;;;;;;;;1.10;99.90;;;;;;5087085;28;19916;-75
2022/12/01 01:34:17;;;;;;;;;;;1.00;99.90;;;;;;5087078;28;19920;-76
2022/12/01 01:36:43;;;;;;;;;;;0.90;99.90;;;;;;5086975;28;19912;-76
2022/12/01 01:39:09;;;;;;;;;;;0.80;99.90;;;;;;5087313;28;19912;-76
2022/12/01 01:41:34;;;;;;;;;;;0.80;99.90;;;;;;5086904;28;20515;-77
2022/12/01 01:44:01;;;;;;;;;;;0.80;99.90;;;;;;5087456;28;19919;-76
2022/12/01 01:46:28;;;;;;;;;;;0.70;99.90;;;;;;5087241;28;20368;-76
2022/12/01 01:48:56;;;;;;;;;;;0.70;99.90;;;;;;5085915;28;19963;-76
2022/12/01 01:51:31;;;;;;;;;;;0.70;99.90;;;;;;5087511;28;20447;-76
2022/12/01 01:53:59;;;;;;;;;;;0.70;99.90;;;;;;5085667;28;19920;-76
2022/12/01 01:56:24;;;;;;;;;;;0.70;99.90;;;;;;5085811;28;19912;-76
2022/12/01 01:58:51;;;;;;;;;;;0.60;99.90;;;;;;5086322;28;19919;-76
2022/12/01 02:01:16;;;;;;;;;;;0.60;99.90;;;;;;5086845;28;19916;-76
2022/12/01 02:03:42;;;;;;;;;;;0.70;99.90;;;;;;5090331;28;19912;-76
2022/12/01 02:06:08;;;;;;;;;;;0.70;99.90;;;;;;5090943;28;19970;-77
2022/12/01 02:08:34;;;;;;;;;;;0.70;99.90;;;;;;5091242;28;20140;-77
2022/12/01 02:11:15;;;;;;;;;;;0.60;99.90;;;;;;5089926;28;20643;-76
2022/12/01 02:13:44;;;;;;;;;;;0.60;99.90;;;;;;5090580;28;20293;-76
2022/12/01 02:16:09;;;;;;;;;;;0.60;99.90;;;;;;5089444;28;19912;-76
2022/12/01 02:18:53;;;;;;;;;;;0.40;99.90;;;;;;5088959;28;20505;-76
2022/12/01 02:21:28;;;;;;;;;;;0.40;99.90;;;;;;5088631;28;19963;-77
2022/12/01 02:24:05;;;;;;;;;;;0.40;99.90;;;;;;5090547;28;19955;-76
2022/12/01 02:26:49;;;;;;;;;;;0.30;99.90;;;;;;5090679;28;20386;-77
2022/12/01 02:29:27;;;;;;;;;;;0.30;99.90;;;;;;5091077;28;20446;-76
2022/12/01 02:31:56;;;;;;;;;;;0.20;99.90;;;;;;5089795;28;19971;-76
2022/12/01 02:34:21;;;;;;;;;;;0.20;99.90;;;;;;5088399;28;20467;-76
2022/12/01 02:36:47;;;;;;;;;;;0.20;99.90;;;;;;5090164;28;19989;-76
2022/12/01 02:39:18;;;;;;;;;;;0.10;99.90;;;;;;5089209;28;19934;-76
2022/12/01 02:41:53;;;;;;;;;;;0.10;99.90;;;;;;5088637;28;19936;-76
2022/12/01 02:44:36;;;;;;;;;;;0.10;99.90;;;;;;5089022;28;19962;-76
2022/12/01 02:47:04;;;;;;;;;;;0.10;99.90;;;;;;5088649;28;19912;-76
2022/12/01 02:49:35;;;;;;;;;;;0.00;99.90;;;;;;5089731;28;19994;-76
2022/12/01 02:52:03;;;;;;;;;;;0.10;99.90;;;;;;5088816;28;19923;-76
2022/12/01 02:54:30;;;;;;;;;;;0.10;99.90;;;;;;5088522;28;20640;-75
2022/12/01 02:56:56;;;;;;;;;;;0.10;99.90;;;;;;5089055;28;20026;-75
2022/12/01 02:59:21;;;;;;;;;;;0.10;99.90;;;;;;5089302;28;20010;-76
2022/12/01 03:01:51;;;;;;;;;;;0.10;99.90;;;;;;5088882;28;19912;-76
2022/12/01 03:04:35;;;;;;;;;;;0.00;99.90;;;;;;5088183;28;19916;-76
2022/12/01 03:07:18;;;;;;;;;;;0.00;99.90;;;;;;5088917;28;19912;-76
2022/12/01 03:09:43;;;;;;;;;;;0.00;99.90;;;;;;5089174;28;19912;-76
2022/12/01 03:12:11;;;;;;;;;;;0.00;99.90;;;;;;5089835;28;19915;-76
2022/12/01 03:14:56;;;;;;;;;;;0.00;99.90;;;;;;5089335;28;20412;-76
2022/12/01 03:17:25;;;;;;;;;;;0.00;99.90;;;;;;5090439;28;19915;-76
2022/12/01 03:19:57;;;;;;;;;;;-0.10;99.90;;;;;;5088899;28;19916;-76
2022/12/01 03:22:30;;;;;;;;;;;-0.10;99.90;;;;;;5090073;28;19912;-76
2022/12/01 03:24:58;;;;;;;;;;;-0.10;99.90;;;;;;5089231;28;19912;-76
2022/12/01 03:27:27;;;;;;;;;;;0.00;99.90;;;;;;5089074;28;19947;-76
2022/12/01 03:29:54;;;;;;;;;;;-0.10;99.90;;;;;;5090569;28;19912;-76
2022/12/01 03:32:40;;;;;;;;;;;-0.20;99.90;;;;;;5089895;28;19919;-76
2022/12/01 03:35:21;;;;;;;;;;;-0.20;99.90;;;;;;5088047;28;19946;-77
2022/12/01 03:37:51;;;;;;;;;;;-0.30;99.90;;;;;;5089282;28;19912;-76
2022/12/01 03:40:20;;;;;;;;;;;-0.30;99.90;;;;;;5089595;28;19912;-76
2022/12/01 03:42:53;;;;;;;;;;;-0.40;99.90;;;;;;5090681;28;19912;-77
2022/12/01 03:45:23;;;;;;;;;;;-0.30;99.90;;;;;;5090581;28;19908;-76
2022/12/01 03:47:49;;;;;;;;;;;-0.40;99.90;;;;;;5090757;28;19998;-77
2022/12/01 03:50:17;;;;;;;;;;;-0.40;99.90;;;;;;5089078;28;20006;-75
2022/12/01 03:52:42;;;;;;;;;;;-0.40;99.90;;;;;;5090698;28;19919;-76
2022/12/01 03:55:26;;;;;;;;;;;-0.40;99.90;;;;;;5089234;28;20316;-76
2022/12/01 03:58:01;;;;;;;;;;;-0.40;99.90;;;;;;5090054;28;19959;-76
2022/12/01 04:00:27;;;;;;;;;;;-0.40;99.90;;;;;;5084215;28;19923;-76
2022/12/01 04:02:54;;;;;;;;;;;-0.30;99.90;;;;;;5087713;28;19943;-76
2022/12/01 04:05:20;;;;;;;;;;;-0.20;99.90;;;;;;5088191;28;19930;-76
2022/12/01 04:07:45;;;;;;;;;;;-0.30;99.90;;;;;;5086217;28;20352;-76
2022/12/01 04:10:11;;;;;;;;;;;-0.30;99.90;;;;;;5087968;28;19919;-76
2022/12/01 04:12:36;;;;;;;;;;;-0.20;99.90;;;;;;5086046;28;19955;-75
2022/12/01 04:15:10;;;;;;;;;;;-0.10;99.90;;;;;;5086360;28;20389;-76
2022/12/01 04:17:35;;;;;;;;;;;-0.10;99.90;;;;;;5087532;28;19912;-76
2022/12/01 04:20:01;;;;;;;;;;;0.00;99.90;;;;;;5086882;28;19908;-76
2022/12/01 04:22:26;;;;;;;;;;;0.20;99.90;;;;;;5086427;28;19923;-76
2022/12/01 04:24:52;;;;;;;;;;;0.20;99.90;;;;;;5087407;28;19912;-75
2022/12/01 04:27:18;;;;;;;;;;;0.20;99.90;;;;;;5086338;28;19912;-77
2022/12/01 04:29:44;;;;;;;;;;;0.20;99.90;;;;;;5088226;28;19916;-77
2022/12/01 04:32:10;;;;;;;;;;;0.20;99.90;;;;;;5087240;28;19920;-75
2022/12/01 04:34:35;;;;;;;;;;;0.20;99.90;;;;;;5088097;28;19917;-77
2022/12/01 04:37:03;;;;;;;;;;;0.20;99.90;;;;;;5088191;28;19965;-77
2022/12/01 04:39:30;;;;;;;;;;;0.30;99.90;;;;;;5086653;28;20006;-77
2022/12/01 04:41:55;;;;;;;;;;;0.30;99.90;;;;;;5086988;28;20394;-77
2022/12/01 04:44:21;;;;;;;;;;;0.30;99.90;;;;;;5086490;28;19912;-76
2022/12/01 04:46:46;;;;;;;;;;;0.30;99.90;;;;;;5086520;28;19961;-76
2022/12/01 04:49:12;;;;;;;;;;;0.30;99.90;;;;;;5087199;28;20233;-77
2022/12/01 04:51:37;;;;;;;;;;;0.30;99.90;;;;;;5086814;28;20376;-76
2022/12/01 04:54:04;;;;;;;;;;;0.30;99.90;;;;;;5087988;28;19989;-77
2022/12/01 04:56:30;;;;;;;;;;;0.30;99.90;;;;;;5088185;28;19908;-76
2022/12/01 04:58:57;;;;;;;;;;;0.30;99.90;;;;;;5086915;28;19998;-76
2022/12/01 05:01:23;;;;;;;;;;;0.30;99.90;;;;;;5086795;28;19912;-77
2022/12/01 05:03:48;;;;;;;;;;;0.30;99.90;;;;;;5086184;28;20239;-77
2022/12/01 05:06:15;;;;;;;;;;;0.40;99.90;;;;;;5086701;28;20362;-76
2022/12/01 05:08:41;;;;;;;;;;;0.30;99.90;;;;;;5086468;28;19908;-77
2022/12/01 05:11:07;;;;;;;;;;;0.30;99.90;;;;;;5088108;28;20016;-77
2022/12/01 05:13:33;;;;;;;;;;;0.40;99.90;;;;;;5088254;28;19916;-77
2022/12/01 05:16:05;;;;;;;;;;;0.40;99.90;;;;;;5087981;28;19908;-76
2022/12/01 05:18:31;;;;;;;;;;;0.50;99.90;;;;;;5086948;28;20018;-77
2022/12/01 05:20:56;;;;;;;;;;;0.50;99.90;;;;;;5087471;28;20042;-76
2022/12/01 05:23:25;;;;;;;;;;;0.60;99.90;;;;;;5087067;28;19912;-76
2022/12/01 05:25:51;;;;;;;;;;;0.60;99.90;;;;;;5086143;28;19962;-77
2022/12/01 05:28:17;;;;;;;;;;;0.60;99.90;;;;;;5086985;28;19912;-76
2022/12/01 05:30:43;;;;;;;;;;;0.60;99.90;;;;;;5086756;28;19909;-76
2022/12/01 05:33:08;;;;;;;;;;;0.60;99.90;;;;;;5086792;28;20007;-76
2022/12/01 05:35:34;;;;;;;;;;;0.60;99.90;;;;;;5087636;28;20055;-76
2022/12/01 05:37:59;;;;;;;;;;;0.60;99.90;;;;;;5092366;28;20002;-76
2022/12/01 05:40:25;;;;;;;;;;;0.50;99.90;;;;;;5091107;28;20035;-76
2022/12/01 05:42:51;;;;;;;;;;;0.50;99.90;;;;;;5092421;28;20387;-77
2022/12/01 05:45:16;;;;;;;;;;;0.50;99.90;;;;;;5091694;28;19997;-77
2022/12/01 05:47:42;;;;;;;;;;;0.50;99.90;;;;;;5092818;28;19914;-77
2022/12/01 05:50:08;;;;;;;;;;;0.50;99.90;;;;;;5092173;28;19912;-77
2022/12/01 05:52:34;;;;;;;;;;;0.50;99.90;;;;;;5091489;28;19965;-77
2022/12/01 05:54:59;;;;;;;;;;;0.50;99.90;;;;;;5091528;28;19931;-77
2022/12/01 05:57:25;;;;;;;;;;;0.50;99.90;;;;;;5091456;28;19908;-77
2022/12/01 05:59:51;;;;;;;;;;;0.60;99.90;;;;;;5091448;28;19961;-76
2022/12/01 06:02:16;;;;;;;;;;;0.60;99.90;;;;;;5092142;28;19914;-77
2022/12/01 06:04:42;;;;;;;;;;;0.50;99.90;;;;;;5091579;28;19914;-77
2022/12/01 06:07:07;;;;;;;;;;;0.50;99.90;;;;;;5092618;28;19912;-77
2022/12/01 06:09:33;;;;;;;;;;;0.60;99.90;;;;;;5092884;28;19919;-77
2022/12/01 06:11:58;;;;;;;;;;;0.60;99.90;;;;;;5091877;28;19947;-77
2022/12/01 06:14:24;;;;;;;;;;;0.60;99.90;;;;;;5090978;28;19924;-77
2022/12/01 06:16:49;;;;;;;;;;;0.60;99.90;;;;;;5091800;28;19919;-77
2022/12/01 06:19:14;;;;;;;;;;;0.50;99.90;;;;;;5093240;28;20349;-78
2022/12/01 06:21:40;;;;;;;;;;;0.50;99.90;;;;;;5093561;28;19941;-77
2022/12/01 06:24:06;;;;;;;;;;;0.40;99.90;;;;;;5090687;28;19919;-76
2022/12/01 06:26:31;;;;;;;;;;;0.40;99.90;;;;;;5089351;28;20376;-76
2022/12/01 06:28:57;;;;;;;;;;;0.40;99.90;;;;;;5088650;28;19912;-76
2022/12/01 06:31:22;;;;;;;;;;;0.30;99.90;;;;;;5089475;28;20391;-77
2022/12/01 06:33:50;;;;;;;;;;;0.30;99.90;;;;;;5090369;28;19916;-77
2022/12/01 06:36:16;;;;;;;;;;;0.30;99.90;;;;;;5090606;28;20003;-77
2022/12/01 06:38:41;;;;;;;;;;;0.30;99.90;;;;;;5088911;28;20189;-77
2022/12/01 06:41:07;;;;;;;;;;;0.30;99.90;;;;;;5090647;28;19919;-77
2022/12/01 06:43:34;;;;;;;;;;;0.30;99.90;;;;;;5089224;28;19912;-77
2022/12/01 06:46:01;;;;;;;;;;;0.40;99.90;;;;;;5088331;28;19918;-77
2022/12/01 06:48:27;;;;;;;;;;;0.40;99.90;;;;;;5088042;28;20366;-77
2022/12/01 06:50:55;;;;;;;;;;;0.50;99.90;;;;;;5088263;28;19999;-77
2022/12/01 06:53:20;;;;;;;;;;;0.50;99.90;;;;;;5090057;28;20384;-77
2022/12/01 06:55:46;;;;;;;;;;;0.60;99.90;;;;;;5088832;28;19912;-77
2022/12/01 06:58:11;;;;;;;;;;;0.70;99.90;;;;;;5090825;28;20296;-77
2022/12/01 07:00:37;;;;;;;;;;;0.90;99.90;;;;;;5088988;28;19916;-78
2022/12/01 07:03:02;;;;;;;;;;;1.10;99.90;;;;;;5088975;28;20015;-77
2022/12/01 07:05:28;;;;;;;;;;;1.30;99.90;;;;;;5089247;28;19970;-77
2022/12/01 07:07:53;;;;;;;;;;;1.40;99.90;;;;;;5088756;28;20015;-75
2022/12/01 07:10:19;;;;;;;;;;;1.70;99.90;;;;;;5090208;28;19908;-76
2022/12/01 07:12:44;;;;;;;;;;;1.80;99.90;;;;;;5089624;28;19915;-77
2022/12/01 07:15:10;;;;;;;;;;;2.10;99.90;;;;;;5091563;28;19920;-77
2022/12/01 07:17:35;;;;;;;;;;;2.20;99.90;;;;;;5089015;28;20334;-76
2022/12/01 07:20:02;;;;;;;;;;;2.30;99.90;;;;;;5091045;28;19971;-77
2022/12/01 07:22:28;;;;;;;;;;;2.30;99.90;;;;;;5089702;28;19912;-77
2022/12/01 07:24:54;;;;;;;;;;;2.40;99.90;;;;;;5089919;28;19984;-77
2022/12/01 07:27:19;;;;;;;;;;;2.50;99.90;;;;;;5090878;28;19918;-77
2022/12/01 07:29:45;;;;;;;;;;;2.80;99.90;;;;;;5090080;28;19909;-77
2022/12/01 07:32:11;;;;;;;;;;;3.00;99.90;;;;;;5089995;28;20357;-77
2022/12/01 07:34:36;;;;;;;;;;;3.10;99.90;;;;;;5088879;28;19920;-77
2022/12/01 07:37:02;;;;;;;;;;;3.40;99.90;;;;;;5088715;28;19934;-78
2022/12/01 07:39:27;;;;;;;;;;;3.70;99.90;;;;;;5091312;28;19919;-77
2022/12/01 07:41:53;;;;;;;;;;;4.00;99.90;;;;;;5089403;28;19908;-77
2022/12/01 07:44:18;;;;;;;;;;;4.30;99.90;;;;;;5089280;28;20579;-76
2022/12/01 07:46:44;;;;;;;;;;;4.60;99.90;;;;;;5089131;28;19916;-77
2022/12/01 07:49:13;;;;;;;;;;;4.80;99.90;;;;;;5090976;28;19912;-76
2022/12/01 07:51:39;;;;;;;;;;;5.10;99.90;;;;;;5091687;28;19908;-77
2022/12/01 07:54:05;;;;;;;;;;;5.40;99.90;;;;;;5092010;28;20007;-78
2022/12/01 07:56:31;;;;;;;;;;;5.70;99.90;;;;;;5091211;28;19928;-77
2022/12/01 07:58:57;;;;;;;;;;;6.10;99.90;;;;;;5088392;28;19915;-76
2022/12/01 08:01:23;;;;;;;;;;;6.30;99.90;;;;;;5088564;28;19912;-77
2022/12/01 08:03:50;;;;;;;;;;;6.40;99.90;;;;;;5089902;28;19965;-78
2022/12/01 08:06:16;;;;;;;;;;;6.50;99.90;;;;;;5090828;28;19912;-77
2022/12/01 08:08:42;;;;;;;;;;;6.80;99.90;;;;;;5087977;28;19973;-77
2022/12/01 08:11:11;;;;;;;;;;;7.10;99.90;;;;;;5086893;28;20557;-75
2022/12/01 08:13:37;;;;;;;;;;;7.40;99.90;;;;;;5088133;28;19969;-75
2022/12/01 08:16:04;;;;;;;;;;;7.70;99.90;;;;;;5087517;28;20285;-75
2022/12/01 08:18:29;;;;;;;;;;;8.00;99.90;;;;;;5088902;28;19912;-75
2022/12/01 08:20:56;;;;;;;;;;;8.20;99.90;;;;;;5087312;28;19916;-75
2022/12/01 08:23:21;;;;;;;;;;;8.40;99.90;;;;;;5085954;28;19912;-76
2022/12/01 08:25:47;;;;;;;;;;;8.80;99.90;;;;;;5086143;28;20270;-75
2022/12/01 08:28:12;;;;;;;;;;;9.10;99.90;;;;;;5085918;28;19908;-78
2022/12/01 08:30:38;;;;;;;;;;;9.20;99.90;;;;;;5086535;28;19974;-79
2022/12/01 08:33:03;;;;;;;;;;;9.10;99.90;;;;;;5086055;28;19916;-77
2022/12/01 08:35:29;;;;;;;;;;;8.90;99.90;;;;;;5085277;28;20349;-77
2022/12/01 08:37:54;;;;;;;;;;;8.80;99.90;;;;;;5085840;28;19951;-78
2022/12/01 08:40:20;;;;;;;;;;;8.50;99.90;;;;;;5085795;28;19919;-78
2022/12/01 08:42:46;;;;;;;;;;;8.30;99.90;;;;;;5085456;28;19908;-78
2022/12/01 08:45:12;;;;;;;;;;;8.10;99.90;;;;;;5087924;28;20281;-78
2022/12/01 08:47:37;;;;;;;;;;;8.00;99.90;;;;;;5087058;28;19908;-77
2022/12/01 08:50:03;;;;;;;;;;;7.90;99.90;;;;;;5087181;28;19969;-75
2022/12/01 08:52:33;;;;;;;;;;;7.70;99.90;;;;;;5085731;28;19912;-75
2022/12/01 08:54:58;;;;;;;;;;;7.60;99.90;;;;;;5086666;28;20077;-75
2022/12/01 08:57:24;;;;;;;;;;;7.50;99.90;;;;;;5086452;28;20375;-77
2022/12/01 08:59:49;;;;;;;;;;;7.40;99.90;;;;;;5087391;28;19916;-76
2022/12/01 09:02:17;;;;;;;;;;;7.20;99.90;;;;;;5087406;28;20114;-77
2022/12/01 09:04:43;;;;;;;;;;;7.00;99.90;;;;;;5088402;28;19912;-76
2022/12/01 09:07:09;;;;;;;;;;;6.90;99.90;;;;;;5087271;28;19908;-75
2022/12/01 09:09:34;;;;;;;;;;;6.90;99.90;;;;;;5086295;28;19912;-75
2022/12/01 09:12:00;;;;;;;;;;;6.90;99.90;;;;;;5090890;28;19911;-75
2022/12/01 09:14:25;;;;;;;;;;;6.90;99.90;;;;;;5091651;28;20014;-75
2022/12/01 09:16:51;;;;;;;;;;;6.90;99.90;;;;;;5092444;28;20533;-76
2022/12/01 09:19:18;;;;;;;;;;;6.90;99.90;;;;;;5091824;28;20000;-76
2022/12/01 09:21:44;;;;;;;;;;;7.00;99.90;;;;;;5092178;28;19915;-75
2022/12/01 09:24:10;;;;;;;;;;;7.10;99.90;;;;;;5092482;28;19912;-77
2022/12/01 09:26:35;;;;;;;;;;;7.10;99.90;;;;;;5091012;28;19970;-76
2022/12/01 09:29:03;;;;;;;;;;;7.30;99.90;;;;;;5090448;28;19944;-79
2022/12/01 09:31:28;;;;;;;;;;;7.40;99.90;;;;;;5092721;28;19912;-77
2022/12/01 09:33:55;;;;;;;;;;;7.50;99.90;;;;;;5091176;28;19939;-75
2022/12/01 09:36:20;;;;;;;;;;;7.50;99.90;;;;;;5091916;28;20417;-76
2022/12/01 09:38:46;;;;;;;;;;;7.70;99.90;;;;;;5092352;28;19990;-76
2022/12/01 09:41:18;;;;;;;;;;;7.80;99.90;;;;;;5090209;28;19921;-76
2022/12/01 09:43:58;;;;;;;;;;;7.80;99.90;;;;;;5091152;28;19912;-77
2022/12/01 09:46:27;;;;;;;;;;;7.90;99.90;;;;;;5091794;28;20056;-77
2022/12/01 09:48:54;;;;;;;;;;;8.00;99.90;;;;;;5091464;28;19912;-77
2022/12/01 09:51:21;;;;;;;;;;;7.90;99.90;;;;;;5089999;28;19908;-77
2022/12/01 09:53:51;;;;;;;;;;;8.00;99.90;;;;;;5091023;28;19982;-77
2022/12/01 09:56:19;;;;;;;;;;;8.00;99.90;;;;;;5091439;28;20296;-77
2022/12/01 09:58:45;;;;;;;;;;;8.00;99.90;;;;;;5091358;28;19918;-75
2022/12/01 10:01:14;;;;;;;;;;;8.00;99.90;;;;;;5090330;28;19916;-76
2022/12/01 10:03:45;;;;;;;;;;;8.00;99.90;;;;;;5089762;28;20019;-75
2022/12/01 10:06:18;;;;;;;;;;;7.90;99.90;;;;;;5091081;28;20448;-76
2022/12/01 10:09:02;;;;;;;;;;;7.90;99.90;;;;;;5090857;28;19943;-76
2022/12/01 10:11:33;;;;;;;;;;;7.80;99.90;;;;;;5092172;28;19915;-76
2022/12/01 10:13:59;;;;;;;;;;;7.60;99.90;;;;;;5089676;28;19920;-75
2022/12/01 10:16:27;;;;;;;;;;;7.60;99.90;;;;;;5091884;28;20171;-77
2022/12/01 10:18:58;;;;;;;;;;;7.60;99.90;;;;;;5091719;28;19916;-76
2022/12/01 10:21:51;;;;;;;;;;;7.50;99.90;;;;;;5089647;28;20284;-75
2022/12/01 10:24:20;;;;;;;;;;;7.40;99.90;;;;;;5090745;28;19912;-77
2022/12/01 10:26:50;;;;;;;;;;;7.30;99.90;;;;;;5092866;28;19912;-76
2022/12/01 10:29:22;;;;;;;;;;;7.30;99.90;;;;;;5092277;28;19943;-76
2022/12/01 10:31:47;;;;;;;;;;;7.20;99.90;;;;;;5089521;28;19999;-76
2022/12/01 10:34:15;;;;;;;;;;;7.20;99.90;;;;;;5090709;28;19991;-77
2022/12/01 10:36:40;;;;;;;;;;;7.20;99.90;;;;;;5091525;28;20600;-76
2022/12/01 10:39:10;;;;;;;;;;;7.20;99.90;;;;;;5091345;28;19947;-76
2022/12/01 10:41:36;;;;;;;;;;;7.10;99.90;;;;;;5092829;28;20535;-76
2022/12/01 10:44:04;;;;;;;;;;;7.10;99.90;;;;;;5092899;28;19934;-75
2022/12/01 10:46:45;;;;;;;;;;;7.10;99.90;;;;;;5092610;28;20396;-76
2022/12/01 10:49:12;;;;;;;;;;;7.10;99.90;;;;;;5092901;28;19935;-75
2022/12/01 10:51:48;;;;;;;;;;;7.10;99.90;;;;;;5093117;28;19931;-77
2022/12/01 10:54:13;;;;;;;;;;;7.10;99.90;;;;;;5092790;28;19945;-77
2022/12/01 10:56:40;;;;;;;;;;;7.10;99.90;;;;;;5094038;28;20367;-77
2022/12/01 10:59:17;;;;;;;;;;;7.10;99.90;;;;;;5092060;28;19919;-76
2022/12/01 11:01:46;;;;;;;;;;;7.10;99.90;;;;;;5093603;28;19957;-76
2022/12/01 11:04:27;;;;;;;;;;;7.10;99.90;;;;;;5094526;28;19912;-76
2022/12/01 11:06:53;;;;;;;;;;;7.10;99.90;;;;;;5095121;28;19912;-78
2022/12/01 11:09:20;;;;;;;;;;;7.10;99.90;;;;;;5097145;28;19914;-76
2022/12/01 11:11:52;;;;;;;;;;;7.10;99.90;;;;;;5093797;28;20244;-77
2022/12/01 11:14:20;;;;;;;;;;;7.10;99.90;;;;;;5088922;28;19920;-77
2022/12/01 11:16:47;;;;;;;;;;;7.00;99.90;;;;;;5090330;28;20432;-77
2022/12/01 11:19:22;;;;;;;;;;;7.00;99.90;;;;;;5090323;28;19912;-77
2022/12/01 11:21:48;;;;;;;;;;;7.10;99.90;;;;;;5090770;28;19912;-77
2022/12/01 11:24:23;;;;;;;;;;;7.10;99.90;;;;;;5088409;28;19916;-76
2022/12/01 11:26:49;;;;;;;;;;;7.20;99.90;;;;;;5089023;28;20364;-77
2022/12/01 11:29:24;;;;;;;;;;;7.30;99.90;;;;;;5089771;28;19965;-76
2022/12/01 11:31:50;;;;;;;;;;;7.20;99.90;;;;;;5088348;28;19912;-77
2022/12/01 11:34:20;;;;;;;;;;;7.30;99.90;;;;;;5087974;28;20488;-77
2022/12/01 11:36:47;;;;;;;;;;;7.30;99.90;;;;;;5088242;28;20416;-77
2022/12/01 11:39:33;;;;;;;;;;;7.30;99.90;;;;;;5088726;28;19916;-77
2022/12/01 11:42:19;;;;;;;;;;;7.30;99.90;;;;;;5086423;28;20218;-76
2022/12/01 11:44:47;;;;;;;;;;;7.40;99.90;;;;;;5087753;28;19995;-77
2022/12/01 11:47:17;;;;;;;;;;;7.40;99.90;;;;;;5089879;28;19998;-77
2022/12/01 11:49:44;;;;;;;;;;;7.40;99.90;;;;;;5090752;28;20449;-77
2022/12/01 11:52:19;;;;;;;;;;;7.40;99.90;;;;;;5089797;28;19918;-76
2022/12/01 11:54:53;;;;;;;;;;;7.50;99.90;;;;;;5089959;28;19926;-77
2022/12/01 11:57:19;;;;;;;;;;;7.50;99.90;;;;;;5090448;28;20300;-76
2022/12/01 11:59:45;;;;;;;;;;;7.50;99.90;;;;;;5089109;28;19912;-76
2022/12/01 12:02:20;;;;;;;;;;;7.40;99.90;;;;;;5089538;28;20427;-75
2022/12/01 12:04:51;;;;;;;;;;;7.40;99.90;;;;;;5089608;28;19912;-76
2022/12/01 12:07:26;;;;;;;;;;;7.40;99.90;;;;;;5087912;28;20003;-77
2022/12/01 12:10:01;;;;;;;;;;;7.40;99.90;;;;;;5088821;28;19912;-76
2022/12/01 12:12:29;;;;;;;;;;;7.40;99.90;;;;;;5090586;28;19916;-76
2022/12/01 12:15:10;;;;;;;;;;;7.40;99.90;;;;;;5089408;28;20128;-77
2022/12/01 12:17:48;;;;;;;;;;;7.40;99.90;;;;;;5088781;28;19912;-76
2022/12/01 12:20:29;;;;;;;;;;;7.40;99.90;;;;;;5090055;28;19912;-74
2022/12/01 12:23:00;;;;;;;;;;;7.30;99.90;;;;;;5090108;28;20010;-77
2022/12/01 12:25:37;;;;;;;;;;;7.40;99.90;;;;;;5089313;28;19912;-76
2022/12/01 12:28:08;;;;;;;;;;;7.40;99.90;;;;;;5088609;28;20384;-76
2022/12/01 12:30:39;;;;;;;;;;;7.30;99.90;;;;;;5088357;28;19908;-76
2022/12/01 12:33:05;;;;;;;;;;;7.30;99.90;;;;;;5089060;28;20406;-76
2022/12/01 12:35:43;;;;;;;;;;;7.30;99.90;;;;;;5090059;28;19920;-77
2022/12/01 12:38:24;;;;;;;;;;;7.30;99.90;;;;;;5089383;28;19909;-76
2022/12/01 12:41:05;;;;;;;;;;;7.20;99.90;;;;;;5090027;28;20508;-76
2022/12/01 12:43:39;;;;;;;;;;;7.20;99.90;;;;;;5089950;28;20433;-76
2022/12/01 12:46:10;;;;;;;;;;;7.20;99.90;;;;;;5090366;28;20400;-76
2022/12/01 12:48:38;;;;;;;;;;;7.10;99.90;;;;;;5089257;28;19951;-76
2022/12/01 12:51:12;;;;;;;;;;;7.10;99.90;;;;;;5090081;28;20392;-76
2022/12/01 12:53:41;;;;;;;;;;;7.10;99.90;;;;;;5090421;28;19928;-77
2022/12/01 12:56:11;;;;;;;;;;;7.00;99.90;;;;;;5087970;28;20392;-77
2022/12/01 12:58:40;;;;;;;;;;;7.00;99.90;;;;;;5089277;28;19912;-76
2022/12/01 13:01:11;;;;;;;;;;;7.00;99.90;;;;;;5088908;28;19951;-76
2022/12/01 13:03:55;;;;;;;;;;;7.00;99.90;;;;;;5088739;28;19916;-77
2022/12/01 13:06:25;;;;;;;;;;;6.90;99.90;;;;;;5090928;28;19912;-76
2022/12/01 13:08:58;;;;;;;;;;;6.80;99.90;;;;;;5090988;28;19912;-76
2022/12/01 13:11:26;;;;;;;;;;;6.80;99.90;;;;;;5091312;28;19915;-77
2022/12/01 13:13:55;;;;;;;;;;;6.80;99.90;;;;;;5088669;28;19916;-75
2022/12/01 13:16:24;;;;;;;;;;;6.80;99.90;;;;;;5090051;28;19916;-76
2022/12/01 13:18:55;;;;;;;;;;;6.90;99.90;;;;;;5089647;28;20497;-76
2022/12/01 13:21:22;;;;;;;;;;;6.80;99.90;;;;;;5090914;28;19912;-77
2022/12/01 13:23:48;;;;;;;;;;;6.80;99.90;;;;;;5089809;28;19916;-77
2022/12/01 13:26:15;;;;;;;;;;;6.80;99.90;;;;;;5089346;28;20364;-76
2022/12/01 13:28:44;;;;;;;;;;;6.70;99.90;;;;;;5091321;28;20003;-77
2022/12/01 13:31:11;;;;;;;;;;;6.70;99.90;;;;;;5088945;28;20412;-76
2022/12/01 13:33:39;;;;;;;;;;;6.60;99.90;;;;;;5092482;28;19912;-77
2022/12/01 13:36:10;;;;;;;;;;;6.70;99.90;;;;;;5091469;28;20007;-76
2022/12/01 13:38:36;;;;;;;;;;;6.60;99.90;;;;;;5087509;28;19912;-76
2022/12/01 13:41:12;;;;;;;;;;;6.50;99.90;;;;;;5088057;28;19934;-77
2022/12/01 13:43:56;;;;;;;;;;;6.50;99.90;;;;;;5087578;28;19908;-77
2022/12/01 13:46:23;;;;;;;;;;;6.50;99.90;;;;;;5086825;28;20381;-77
2022/12/01 13:48:56;;;;;;;;;;;6.50;99.90;;;;;;5086660;28;20364;-77
2022/12/01 13:51:23;;;;;;;;;;;6.60;99.90;;;;;;5088326;28;19963;-77
2022/12/01 13:53:55;;;;;;;;;;;6.50;99.90;;;;;;5088645;28;19924;-77
2022/12/01 13:56:26;;;;;;;;;;;6.50;99.90;;;;;;5082121;28;20411;-76
2022/12/01 13:58:53;;;;;;;;;;;6.50;99.90;;;;;;5092691;28;19956;-76
2022/12/01 14:01:18;;;;;;;;;;;6.50;99.90;;;;;;5091158;28;19953;-76
2022/12/01 14:04:02;;;;;;;;;;;6.50;99.90;;;;;;5092014;28;19954;-77
2022/12/01 14:06:37;;;;;;;;;;;6.50;99.90;;;;;;5091030;28;19912;-76
2022/12/01 14:09:13;;;;;;;;;;;6.40;99.90;;;;;;5091193;28;20288;-77
2022/12/01 14:11:39;;;;;;;;;;;6.40;99.90;;;;;;5092312;28;19908;-77
2022/12/01 14:14:11;;;;;;;;;;;6.30;99.90;;;;;;5092278;28;20007;-77
2022/12/01 14:16:54;;;;;;;;;;;6.30;99.90;;;;;;5090788;28;20371;-77
2022/12/01 14:19:25;;;;;;;;;;;6.20;99.90;;;;;;5091978;28;19981;-77
2022/12/01 14:21:51;;;;;;;;;;;6.10;99.90;;;;;;5090347;28;19950;-77
2022/12/01 14:24:40;;;;;;;;;;;6.00;99.90;;;;;;5091433;28;19951;-76
2022/12/01 14:27:06;;;;;;;;;;;6.00;99.90;;;;;;5083165;28;19908;-77
2022/12/01 14:29:33;;;;;;;;;;;5.90;99.90;;;;;;5089376;28;20384;-77
2022/12/01 14:31:58;;;;;;;;;;;5.80;99.90;;;;;;5090698;28;19912;-77
2022/12/01 14:34:25;;;;;;;;;;;5.80;99.90;;;;;;5089429;28;19920;-77
2022/12/01 14:37:00;;;;;;;;;;;5.80;99.90;;;;;;5090801;28;19948;-77
2022/12/01 14:39:37;;;;;;;;;;;5.60;99.90;;;;;;5090204;28;20582;-77